Weather at Pay Jay Nr 2 Heliport

Public forecast

Using degrees Fahrenheit for public forecast. Weather courtesy of forecast.io.

Closest aviation weather report (METAR) to Pay Jay Nr 2 Heliport

Closest report is Artesia Municipal Airport, 3.5 nm (6.4 km) WNW. Retrieved 2022/01/22 20:35 UTC (10 minutes ago):

KATS 222035Z AUTO VRB05KT 10SM BKN034 05/M07 A3033 RMK AO2

Closest aviation forecast (TAF) to Pay Jay Nr 2 Heliport

Closest forecast is Roswell Air Center Airport, 28.5 nm (52.7 km) NNW. Retrieved 2022/01/22 18:30 UTC (2 hours ago):

TAF KROW 221727Z 2218/2318 01007KT P6SM SKC FM222000 14008KT P6SM SCT050 FM230200 VRB06KT P6SM OVC035 FM230900 VRB06KT P6SM OVC025 FM231700 16006KT P6SM BKN035